sensor_id;sensor_type;location;lat;lon;timestamp;P1;durP1;ratioP1;P2;durP2;ratioP2
72493;SDS011;60520;49.182;-0.348;2022-07-01T00:01:43;1.05;;;0.55;;
72493;SDS011;60520;49.182;-0.348;2022-07-01T00:04:13;0.77;;;0.52;;
72493;SDS011;60520;49.182;-0.348;2022-07-01T00:06:40;1.48;;;0.70;;
72493;SDS011;60520;49.182;-0.348;2022-07-01T00:09:07;1.80;;;0.60;;
72493;SDS011;60520;49.182;-0.348;2022-07-01T00:11:35;0.90;;;0.50;;
72493;SDS011;60520;49.182;-0.348;2022-07-01T00:14:02;2.20;;;0.93;;
72493;SDS011;60520;49.182;-0.348;2022-07-01T00:16:29;1.40;;;0.65;;
72493;SDS011;60520;49.182;-0.348;2022-07-01T00:18:56;1.17;;;0.60;;
72493;SDS011;60520;49.182;-0.348;2022-07-01T00:21:25;1.23;;;0.60;;
72493;SDS011;60520;49.182;-0.348;2022-07-01T00:23:52;1.20;;;0.70;;
72493;SDS011;60520;49.182;-0.348;2022-07-01T00:26:19;1.77;;;0.70;;
72493;SDS011;60520;49.182;-0.348;2022-07-01T00:28:46;1.33;;;0.68;;
72493;SDS011;60520;49.182;-0.348;2022-07-01T00:31:13;1.83;;;0.60;;
72493;SDS011;60520;49.182;-0.348;2022-07-01T00:33:40;1.70;;;0.80;;
72493;SDS011;60520;49.182;-0.348;2022-07-01T00:36:07;2.70;;;0.90;;
72493;SDS011;60520;49.182;-0.348;2022-07-01T00:38:36;0.98;;;0.60;;
72493;SDS011;60520;49.182;-0.348;2022-07-01T00:41:03;2.35;;;0.80;;
72493;SDS011;60520;49.182;-0.348;2022-07-01T00:43:34;1.63;;;0.80;;
72493;SDS011;60520;49.182;-0.348;2022-07-01T00:46:01;1.08;;;0.52;;
72493;SDS011;60520;49.182;-0.348;2022-07-01T00:48:28;1.08;;;0.70;;
72493;SDS011;60520;49.182;-0.348;2022-07-01T00:50:56;1.83;;;0.60;;
72493;SDS011;60520;49.182;-0.348;2022-07-01T00:53:24;1.70;;;0.70;;
72493;SDS011;60520;49.182;-0.348;2022-07-01T00:55:53;1.00;;;0.60;;
72493;SDS011;60520;49.182;-0.348;2022-07-01T00:58:20;1.13;;;0.60;;
72493;SDS011;60520;49.182;-0.348;2022-07-01T01:00:47;1.35;;;0.70;;
72493;SDS011;60520;49.182;-0.348;2022-07-01T01:03:14;1.92;;;0.60;;
72493;SDS011;60520;49.182;-0.348;2022-07-01T01:05:41;1.30;;;0.70;;
72493;SDS011;60520;49.182;-0.348;2022-07-01T01:08:08;1.17;;;0.57;;
72493;SDS011;60520;49.182;-0.348;2022-07-01T01:10:36;0.95;;;0.65;;
72493;SDS011;60520;49.182;-0.348;2022-07-01T01:13:05;1.40;;;0.70;;
72493;SDS011;60520;49.182;-0.348;2022-07-01T01:15:32;0.77;;;0.60;;
72493;SDS011;60520;49.182;-0.348;2022-07-01T01:17:59;1.33;;;0.60;;
72493;SDS011;60520;49.182;-0.348;2022-07-01T01:23:01;1.15;;;0.52;;
72493;SDS011;60520;49.182;-0.348;2022-07-01T01:25:29;1.33;;;0.60;;
72493;SDS011;60520;49.182;-0.348;2022-07-01T01:27:56;1.33;;;0.60;;
72493;SDS011;60520;49.182;-0.348;2022-07-01T01:30:23;1.50;;;0.60;;
72493;SDS011;60520;49.182;-0.348;2022-07-01T01:32:50;1.45;;;0.57;;
72493;SDS011;60520;49.182;-0.348;2022-07-01T01:35:18;1.08;;;0.43;;
72493;SDS011;60520;49.182;-0.348;2022-07-01T01:37:45;2.00;;;0.63;;
72493;SDS011;60520;49.182;-0.348;2022-07-01T01:40:14;1.10;;;0.60;;
72493;SDS011;60520;49.182;-0.348;2022-07-01T01:42:41;1.45;;;0.60;;
72493;SDS011;60520;49.182;-0.348;2022-07-01T01:45:08;1.60;;;0.70;;
72493;SDS011;60520;49.182;-0.348;2022-07-01T01:47:36;1.20;;;0.57;;
72493;SDS011;60520;49.182;-0.348;2022-07-01T01:50:03;2.70;;;0.68;;
72493;SDS011;60520;49.182;-0.348;2022-07-01T01:52:30;1.17;;;0.60;;
72493;SDS011;60520;49.182;-0.348;2022-07-01T01:54:58;1.42;;;0.60;;
72493;SDS011;60520;49.182;-0.348;2022-07-01T01:57:26;1.13;;;0.50;;
72493;SDS011;60520;49.182;-0.348;2022-07-01T01:59:53;1.38;;;0.50;;
72493;SDS011;60520;49.182;-0.348;2022-07-01T02:02:21;0.70;;;0.60;;
72493;SDS011;60520;49.182;-0.348;2022-07-01T02:04:48;1.67;;;0.50;;
72493;SDS011;60520;49.182;-0.348;2022-07-01T02:07:15;1.30;;;0.52;;
72493;SDS011;60520;49.182;-0.348;2022-07-01T02:09:43;1.65;;;0.60;;
72493;SDS011;60520;49.182;-0.348;2022-07-01T02:12:10;1.25;;;0.70;;
72493;SDS011;60520;49.182;-0.348;2022-07-01T02:14:38;1.55;;;0.70;;
72493;SDS011;60520;49.182;-0.348;2022-07-01T02:17:05;0.80;;;0.50;;
72493;SDS011;60520;49.182;-0.348;2022-07-01T02:19:33;1.10;;;0.60;;
72493;SDS011;60520;49.182;-0.348;2022-07-01T02:22:00;0.98;;;0.50;;
72493;SDS011;60520;49.182;-0.348;2022-07-01T02:24:27;1.45;;;0.50;;
72493;SDS011;60520;49.182;-0.348;2022-07-01T02:26:54;1.45;;;0.60;;
72493;SDS011;60520;49.182;-0.348;2022-07-01T02:29:21;1.10;;;0.50;;
72493;SDS011;60520;49.182;-0.348;2022-07-01T02:31:49;0.70;;;0.40;;
72493;SDS011;60520;49.182;-0.348;2022-07-01T02:34:16;3.00;;;0.60;;
72493;SDS011;60520;49.182;-0.348;2022-07-01T02:36:44;3.53;;;0.70;;
72493;SDS011;60520;49.182;-0.348;2022-07-01T02:39:11;0.95;;;0.60;;
72493;SDS011;60520;49.182;-0.348;2022-07-01T02:41:38;1.27;;;0.50;;
72493;SDS011;60520;49.182;-0.348;2022-07-01T02:44:19;0.88;;;0.50;;
72493;SDS011;60520;49.182;-0.348;2022-07-01T02:46:46;1.27;;;0.50;;
72493;SDS011;60520;49.182;-0.348;2022-07-01T02:49:15;0.80;;;0.50;;
72493;SDS011;60520;49.182;-0.348;2022-07-01T02:51:42;1.38;;;0.68;;
72493;SDS011;60520;49.182;-0.348;2022-07-01T02:54:09;1.92;;;0.60;;
72493;SDS011;60520;49.182;-0.348;2022-07-01T02:56:36;1.50;;;0.70;;
72493;SDS011;60520;49.182;-0.348;2022-07-01T02:59:03;1.60;;;0.50;;
72493;SDS011;60520;49.182;-0.348;2022-07-01T03:01:30;2.65;;;0.60;;
72493;SDS011;60520;49.182;-0.348;2022-07-01T03:03:57;2.25;;;0.60;;
72493;SDS011;60520;49.182;-0.348;2022-07-01T03:06:26;1.67;;;0.60;;
72493;SDS011;60520;49.182;-0.348;2022-07-01T03:08:53;2.05;;;0.60;;
72493;SDS011;60520;49.182;-0.348;2022-07-01T03:11:21;1.40;;;0.57;;
72493;SDS011;60520;49.182;-0.348;2022-07-01T03:13:48;0.75;;;0.52;;
72493;SDS011;60520;49.182;-0.348;2022-07-01T03:16:15;0.98;;;0.60;;
72493;SDS011;60520;49.182;-0.348;2022-07-01T03:18:42;0.85;;;0.50;;
72493;SDS011;60520;49.182;-0.348;2022-07-01T03:21:09;1.17;;;0.40;;
72493;SDS011;60520;49.182;-0.348;2022-07-01T03:23:37;0.95;;;0.50;;
72493;SDS011;60520;49.182;-0.348;2022-07-01T03:26:05;0.80;;;0.50;;
72493;SDS011;60520;49.182;-0.348;2022-07-01T03:28:32;1.30;;;0.60;;
72493;SDS011;60520;49.182;-0.348;2022-07-01T03:30:59;1.20;;;0.50;;
72493;SDS011;60520;49.182;-0.348;2022-07-01T03:33:26;1.88;;;0.68;;
72493;SDS011;60520;49.182;-0.348;2022-07-01T03:35:53;1.58;;;0.77;;
72493;SDS011;60520;49.182;-0.348;2022-07-01T03:38:20;1.63;;;0.60;;
72493;SDS011;60520;49.182;-0.348;2022-07-01T03:40:49;1.35;;;0.50;;
72493;SDS011;60520;49.182;-0.348;2022-07-01T03:43:16;2.25;;;0.63;;
72493;SDS011;60520;49.182;-0.348;2022-07-01T03:45:43;0.60;;;0.40;;
72493;SDS011;60520;49.182;-0.348;2022-07-01T03:48:10;1.15;;;0.57;;
72493;SDS011;60520;49.182;-0.348;2022-07-01T03:50:37;1.70;;;0.60;;
72493;SDS011;60520;49.182;-0.348;2022-07-01T03:53:05;1.05;;;0.70;;
72493;SDS011;60520;49.182;-0.348;2022-07-01T03:55:51;1.20;;;0.63;;
72493;SDS011;60520;49.182;-0.348;2022-07-01T03:58:18;1.63;;;0.60;;
72493;SDS011;60520;49.182;-0.348;2022-07-01T04:00:45;0.75;;;0.40;;
72493;SDS011;60520;49.182;-0.348;2022-07-01T04:03:12;1.33;;;0.60;;
72493;SDS011;60520;49.182;-0.348;2022-07-01T04:05:39;0.90;;;0.47;;
72493;SDS011;60520;49.182;-0.348;2022-07-01T04:08:07;2.13;;;0.60;;
72493;SDS011;60520;49.182;-0.348;2022-07-01T04:10:36;1.23;;;0.52;;
72493;SDS011;60520;49.182;-0.348;2022-07-01T04:13:05;1.50;;;0.63;;
72493;SDS011;60520;49.182;-0.348;2022-07-01T04:15:32;0.90;;;0.52;;
72493;SDS011;60520;49.182;-0.348;2022-07-01T04:18:00;0.80;;;0.50;;
72493;SDS011;60520;49.182;-0.348;2022-07-01T04:20:27;1.38;;;0.50;;
72493;SDS011;60520;49.182;-0.348;2022-07-01T04:22:54;0.63;;;0.50;;
72493;SDS011;60520;49.182;-0.348;2022-07-01T04:25:21;0.57;;;0.50;;
72493;SDS011;60520;49.182;-0.348;2022-07-01T04:27:48;1.55;;;0.70;;
72493;SDS011;60520;49.182;-0.348;2022-07-01T04:30:16;1.05;;;0.50;;
72493;SDS011;60520;49.182;-0.348;2022-07-01T04:32:43;1.08;;;0.50;;
72493;SDS011;60520;49.182;-0.348;2022-07-01T04:35:11;1.20;;;0.63;;
72493;SDS011;60520;49.182;-0.348;2022-07-01T04:37:39;1.15;;;0.50;;
72493;SDS011;60520;49.182;-0.348;2022-07-01T04:40:06;0.85;;;0.45;;
72493;SDS011;60520;49.182;-0.348;2022-07-01T04:42:34;0.80;;;0.38;;
72493;SDS011;60520;49.182;-0.348;2022-07-01T04:45:01;2.05;;;0.57;;
72493;SDS011;60520;49.182;-0.348;2022-07-01T04:47:30;1.77;;;0.70;;
72493;SDS011;60520;49.182;-0.348;2022-07-01T04:49:58;1.10;;;0.50;;
72493;SDS011;60520;49.182;-0.348;2022-07-01T04:52:26;1.58;;;0.43;;
72493;SDS011;60520;49.182;-0.348;2022-07-01T04:54:53;0.60;;;0.45;;
72493;SDS011;60520;49.182;-0.348;2022-07-01T04:57:21;1.17;;;0.50;;
72493;SDS011;60520;49.182;-0.348;2022-07-01T04:59:48;0.55;;;0.30;;
72493;SDS011;60520;49.182;-0.348;2022-07-01T05:02:15;1.23;;;0.50;;
72493;SDS011;60520;49.182;-0.348;2022-07-01T05:04:43;1.45;;;0.50;;
72493;SDS011;60520;49.182;-0.348;2022-07-01T05:07:10;1.05;;;0.43;;
72493;SDS011;60520;49.182;-0.348;2022-07-01T05:09:51;0.98;;;0.57;;
72493;SDS011;60520;49.182;-0.348;2022-07-01T05:12:19;1.77;;;0.50;;
72493;SDS011;60520;49.182;-0.348;2022-07-01T05:14:46;1.45;;;0.50;;
72493;SDS011;60520;49.182;-0.348;2022-07-01T05:17:13;0.70;;;0.40;;
72493;SDS011;60520;49.182;-0.348;2022-07-01T05:19:40;1.52;;;0.60;;
72493;SDS011;60520;49.182;-0.348;2022-07-01T05:22:26;0.68;;;0.40;;
72493;SDS011;60520;49.182;-0.348;2022-07-01T05:24:53;0.93;;;0.60;;
72493;SDS011;60520;49.182;-0.348;2022-07-01T05:27:20;1.48;;;0.50;;
72493;SDS011;60520;49.182;-0.348;2022-07-01T05:29:49;0.60;;;0.40;;
72493;SDS011;60520;49.182;-0.348;2022-07-01T05:32:17;1.02;;;0.50;;
72493;SDS011;60520;49.182;-0.348;2022-07-01T05:34:44;0.98;;;0.50;;
72493;SDS011;60520;49.182;-0.348;2022-07-01T05:37:11;1.58;;;0.70;;
72493;SDS011;60520;49.182;-0.348;2022-07-01T05:39:43;1.92;;;0.57;;
72493;SDS011;60520;49.182;-0.348;2022-07-01T05:42:10;1.10;;;0.47;;
72493;SDS011;60520;49.182;-0.348;2022-07-01T05:44:37;0.75;;;0.47;;
72493;SDS011;60520;49.182;-0.348;2022-07-01T05:47:04;0.93;;;0.50;;
72493;SDS011;60520;49.182;-0.348;2022-07-01T05:49:32;0.80;;;0.40;;
72493;SDS011;60520;49.182;-0.348;2022-07-01T05:51:59;1.58;;;0.50;;
72493;SDS011;60520;49.182;-0.348;2022-07-01T05:54:26;1.08;;;0.50;;
72493;SDS011;60520;49.182;-0.348;2022-07-01T05:56:54;1.35;;;0.45;;
72493;SDS011;60520;49.182;-0.348;2022-07-01T05:59:22;1.38;;;0.63;;
72493;SDS011;60520;49.182;-0.348;2022-07-01T06:01:49;0.85;;;0.40;;
72493;SDS011;60520;49.182;-0.348;2022-07-01T06:04:16;1.00;;;0.50;;
72493;SDS011;60520;49.182;-0.348;2022-07-01T06:06:43;0.90;;;0.50;;
72493;SDS011;60520;49.182;-0.348;2022-07-01T06:09:10;1.00;;;0.55;;
72493;SDS011;60520;49.182;-0.348;2022-07-01T06:11:38;0.50;;;0.50;;
72493;SDS011;60520;49.182;-0.348;2022-07-01T06:14:06;1.08;;;0.50;;
72493;SDS011;60520;49.182;-0.348;2022-07-01T06:16:33;0.98;;;0.40;;
72493;SDS011;60520;49.182;-0.348;2022-07-01T06:19:00;1.33;;;0.68;;
72493;SDS011;60520;49.182;-0.348;2022-07-01T06:21:28;1.13;;;0.60;;
72493;SDS011;60520;49.182;-0.348;2022-07-01T06:23:55;0.73;;;0.40;;
72493;SDS011;60520;49.182;-0.348;2022-07-01T06:26:22;2.53;;;0.70;;
72493;SDS011;60520;49.182;-0.348;2022-07-01T06:28:49;0.93;;;0.40;;
72493;SDS011;60520;49.182;-0.348;2022-07-01T06:31:18;1.33;;;0.52;;
72493;SDS011;60520;49.182;-0.348;2022-07-01T06:33:45;0.88;;;0.50;;
72493;SDS011;60520;49.182;-0.348;2022-07-01T06:36:12;0.73;;;0.38;;
72493;SDS011;60520;49.182;-0.348;2022-07-01T06:38:39;1.00;;;0.35;;
72493;SDS011;60520;49.182;-0.348;2022-07-01T06:41:06;1.23;;;0.43;;
72493;SDS011;60520;49.182;-0.348;2022-07-01T06:43:51;0.77;;;0.40;;
72493;SDS011;60520;49.182;-0.348;2022-07-01T06:46:20;1.40;;;0.60;;
72493;SDS011;60520;49.182;-0.348;2022-07-01T06:48:47;0.85;;;0.40;;
72493;SDS011;60520;49.182;-0.348;2022-07-01T06:51:14;1.05;;;0.47;;
72493;SDS011;60520;49.182;-0.348;2022-07-01T06:53:42;0.75;;;0.50;;
72493;SDS011;60520;49.182;-0.348;2022-07-01T06:56:11;0.43;;;0.38;;
72493;SDS011;60520;49.182;-0.348;2022-07-01T06:58:38;1.80;;;0.50;;
72493;SDS011;60520;49.182;-0.348;2022-07-01T07:01:05;0.80;;;0.50;;
72493;SDS011;60520;49.182;-0.348;2022-07-01T07:03:34;0.70;;;0.50;;
72493;SDS011;60520;49.182;-0.348;2022-07-01T07:06:02;1.35;;;0.52;;
72493;SDS011;60520;49.182;-0.348;2022-07-01T07:08:29;0.98;;;0.43;;
72493;SDS011;60520;49.182;-0.348;2022-07-01T07:10:57;0.90;;;0.50;;
72493;SDS011;60520;49.182;-0.348;2022-07-01T07:13:24;0.60;;;0.45;;
72493;SDS011;60520;49.182;-0.348;2022-07-01T07:15:51;1.23;;;0.50;;
72493;SDS011;60520;49.182;-0.348;2022-07-01T07:18:19;0.43;;;0.40;;
72493;SDS011;60520;49.182;-0.348;2022-07-01T07:20:47;1.92;;;0.50;;
72493;SDS011;60520;49.182;-0.348;2022-07-01T07:23:14;1.05;;;0.50;;
72493;SDS011;60520;49.182;-0.348;2022-07-01T07:25:42;1.05;;;0.50;;
72493;SDS011;60520;49.182;-0.348;2022-07-01T07:28:09;0.70;;;0.40;;
72493;SDS011;60520;49.182;-0.348;2022-07-01T07:30:36;1.40;;;0.47;;
72493;SDS011;60520;49.182;-0.348;2022-07-01T07:33:03;0.93;;;0.30;;
72493;SDS011;60520;49.182;-0.348;2022-07-01T07:35:31;1.35;;;0.70;;
72493;SDS011;60520;49.182;-0.348;2022-07-01T07:37:59;0.65;;;0.45;;
72493;SDS011;60520;49.182;-0.348;2022-07-01T07:40:26;1.05;;;0.50;;
72493;SDS011;60520;49.182;-0.348;2022-07-01T07:42:53;1.00;;;0.40;;
72493;SDS011;60520;49.182;-0.348;2022-07-01T07:45:20;1.83;;;0.40;;
72493;SDS011;60520;49.182;-0.348;2022-07-01T07:47:48;1.02;;;0.35;;
72493;SDS011;60520;49.182;-0.348;2022-07-01T07:50:16;0.70;;;0.50;;
72493;SDS011;60520;49.182;-0.348;2022-07-01T07:52:43;0.68;;;0.40;;
72493;SDS011;60520;49.182;-0.348;2022-07-01T07:55:12;1.02;;;0.50;;
72493;SDS011;60520;49.182;-0.348;2022-07-01T07:57:39;0.70;;;0.47;;
72493;SDS011;60520;49.182;-0.348;2022-07-01T08:00:07;0.82;;;0.50;;
72493;SDS011;60520;49.182;-0.348;2022-07-01T08:02:35;0.98;;;0.40;;
72493;SDS011;60520;49.182;-0.348;2022-07-01T08:05:03;1.27;;;0.55;;
72493;SDS011;60520;49.182;-0.348;2022-07-01T08:07:30;2.90;;;0.50;;
72493;SDS011;60520;49.182;-0.348;2022-07-01T08:10:01;1.70;;;0.80;;
72493;SDS011;60520;49.182;-0.348;2022-07-01T08:12:29;2.85;;;0.82;;
72493;SDS011;60520;49.182;-0.348;2022-07-01T08:14:56;5.20;;;0.80;;
72493;SDS011;60520;49.182;-0.348;2022-07-01T08:17:24;4.40;;;0.93;;
72493;SDS011;60520;49.182;-0.348;2022-07-01T08:19:51;4.40;;;1.17;;
72493;SDS011;60520;49.182;-0.348;2022-07-01T08:22:18;6.07;;;1.00;;
72493;SDS011;60520;49.182;-0.348;2022-07-01T08:24:45;12.32;;;1.00;;
72493;SDS011;60520;49.182;-0.348;2022-07-01T08:27:13;7.50;;;0.80;;
72493;SDS011;60520;49.182;-0.348;2022-07-01T08:29:42;5.13;;;0.90;;
72493;SDS011;60520;49.182;-0.348;2022-07-01T08:32:09;3.92;;;0.85;;
72493;SDS011;60520;49.182;-0.348;2022-07-01T08:34:36;1.88;;;0.80;;
72493;SDS011;60520;49.182;-0.348;2022-07-01T08:37:03;5.95;;;0.90;;
72493;SDS011;60520;49.182;-0.348;2022-07-01T08:39:31;3.53;;;0.88;;
72493;SDS011;60520;49.182;-0.348;2022-07-01T08:41:58;6.85;;;1.00;;
72493;SDS011;60520;49.182;-0.348;2022-07-01T08:44:25;1.45;;;0.80;;
72493;SDS011;60520;49.182;-0.348;2022-07-01T08:46:53;3.70;;;0.85;;
72493;SDS011;60520;49.182;-0.348;2022-07-01T08:49:20;2.30;;;0.77;;
72493;SDS011;60520;49.182;-0.348;2022-07-01T08:51:48;3.38;;;0.93;;
72493;SDS011;60520;49.182;-0.348;2022-07-01T08:54:15;4.57;;;0.90;;
72493;SDS011;60520;49.182;-0.348;2022-07-01T08:56:42;2.97;;;1.05;;
72493;SDS011;60520;49.182;-0.348;2022-07-01T08:59:11;5.25;;;1.00;;
72493;SDS011;60520;49.182;-0.348;2022-07-01T09:01:39;4.13;;;0.90;;
72493;SDS011;60520;49.182;-0.348;2022-07-01T09:04:14;3.65;;;0.82;;
72493;SDS011;60520;49.182;-0.348;2022-07-01T09:06:42;3.13;;;0.82;;
72493;SDS011;60520;49.182;-0.348;2022-07-01T09:09:10;5.03;;;0.95;;
72493;SDS011;60520;49.182;-0.348;2022-07-01T09:11:38;4.70;;;1.30;;
72493;SDS011;60520;49.182;-0.348;2022-07-01T09:14:10;5.88;;;1.50;;
72493;SDS011;60520;49.182;-0.348;2022-07-01T09:16:41;2.28;;;0.90;;
72493;SDS011;60520;49.182;-0.348;2022-07-01T09:19:09;4.90;;;1.30;;
72493;SDS011;60520;49.182;-0.348;2022-07-01T09:21:37;6.55;;;1.08;;
72493;SDS011;60520;49.182;-0.348;2022-07-01T09:24:05;3.03;;;1.00;;
72493;SDS011;60520;49.182;-0.348;2022-07-01T09:26:51;2.72;;;0.88;;
72493;SDS011;60520;49.182;-0.348;2022-07-01T09:29:18;3.65;;;0.77;;
72493;SDS011;60520;49.182;-0.348;2022-07-01T09:31:47;1.48;;;0.70;;
72493;SDS011;60520;49.182;-0.348;2022-07-01T09:34:14;4.22;;;0.75;;
72493;SDS011;60520;49.182;-0.348;2022-07-01T09:36:44;4.65;;;0.93;;
72493;SDS011;60520;49.182;-0.348;2022-07-01T09:39:18;3.58;;;1.00;;
72493;SDS011;60520;49.182;-0.348;2022-07-01T09:41:45;3.90;;;1.00;;
72493;SDS011;60520;49.182;-0.348;2022-07-01T09:44:12;4.93;;;0.80;;
72493;SDS011;60520;49.182;-0.348;2022-07-01T09:46:50;3.45;;;0.90;;
72493;SDS011;60520;49.182;-0.348;2022-07-01T09:49:17;3.72;;;0.82;;
72493;SDS011;60520;49.182;-0.348;2022-07-01T09:51:46;6.25;;;1.40;;
72493;SDS011;60520;49.182;-0.348;2022-07-01T09:54:15;11.80;;;1.65;;
72493;SDS011;60520;49.182;-0.348;2022-07-01T09:56:43;3.50;;;1.17;;
72493;SDS011;60520;49.182;-0.348;2022-07-01T10:01:37;4.82;;;0.90;;
72493;SDS011;60520;49.182;-0.348;2022-07-01T10:04:06;4.20;;;1.08;;
72493;SDS011;60520;49.182;-0.348;2022-07-01T10:06:39;3.40;;;0.85;;
72493;SDS011;60520;49.182;-0.348;2022-07-01T10:09:16;3.65;;;0.93;;
72493;SDS011;60520;49.182;-0.348;2022-07-01T10:11:52;2.90;;;1.00;;
72493;SDS011;60520;49.182;-0.348;2022-07-01T10:14:28;3.38;;;1.10;;
72493;SDS011;60520;49.182;-0.348;2022-07-01T10:16:56;3.25;;;0.80;;
72493;SDS011;60520;49.182;-0.348;2022-07-01T10:19:27;4.80;;;1.00;;
72493;SDS011;60520;49.182;-0.348;2022-07-01T10:21:55;3.85;;;1.45;;
72493;SDS011;60520;49.182;-0.348;2022-07-01T10:24:25;3.60;;;1.00;;
72493;SDS011;60520;49.182;-0.348;2022-07-01T10:26:56;4.68;;;1.10;;
72493;SDS011;60520;49.182;-0.348;2022-07-01T10:29:31;2.97;;;0.80;;
72493;SDS011;60520;49.182;-0.348;2022-07-01T10:32:02;3.00;;;0.80;;
72493;SDS011;60520;49.182;-0.348;2022-07-01T10:34:33;6.03;;;0.93;;
72493;SDS011;60520;49.182;-0.348;2022-07-01T10:37:01;2.60;;;0.85;;
72493;SDS011;60520;49.182;-0.348;2022-07-01T10:39:30;1.20;;;0.55;;
72493;SDS011;60520;49.182;-0.348;2022-07-01T10:41:58;3.20;;;0.70;;
72493;SDS011;60520;49.182;-0.348;2022-07-01T10:44:26;3.22;;;0.90;;
72493;SDS011;60520;49.182;-0.348;2022-07-01T10:46:54;4.40;;;0.85;;
72493;SDS011;60520;49.182;-0.348;2022-07-01T10:52:10;1.15;;;0.70;;
72493;SDS011;60520;49.182;-0.348;2022-07-01T10:54:47;3.88;;;0.90;;
72493;SDS011;60520;49.182;-0.348;2022-07-01T10:57:19;6.20;;;0.88;;
72493;SDS011;60520;49.182;-0.348;2022-07-01T10:59:48;2.50;;;0.60;;
72493;SDS011;60520;49.182;-0.348;2022-07-01T11:02:16;2.17;;;0.90;;
72493;SDS011;60520;49.182;-0.348;2022-07-01T11:04:44;2.22;;;0.77;;
72493;SDS011;60520;49.182;-0.348;2022-07-01T11:07:11;2.22;;;0.80;;
72493;SDS011;60520;49.182;-0.348;2022-07-01T11:09:38;2.03;;;0.85;;
72493;SDS011;60520;49.182;-0.348;2022-07-01T11:12:08;2.45;;;0.90;;
72493;SDS011;60520;49.182;-0.348;2022-07-01T11:14:35;2.00;;;0.70;;
72493;SDS011;60520;49.182;-0.348;2022-07-01T11:17:03;3.10;;;1.00;;
72493;SDS011;60520;49.182;-0.348;2022-07-01T11:19:31;4.80;;;0.82;;
72493;SDS011;60520;49.182;-0.348;2022-07-01T11:21:58;2.80;;;0.82;;
72493;SDS011;60520;49.182;-0.348;2022-07-01T11:24:26;3.35;;;1.00;;
72493;SDS011;60520;49.182;-0.348;2022-07-01T11:26:54;2.83;;;0.63;;
72493;SDS011;60520;49.182;-0.348;2022-07-01T11:29:25;3.53;;;0.90;;
72493;SDS011;60520;49.182;-0.348;2022-07-01T11:31:53;3.47;;;1.00;;
72493;SDS011;60520;49.182;-0.348;2022-07-01T11:34:20;1.70;;;0.70;;
72493;SDS011;60520;49.182;-0.348;2022-07-01T11:36:47;3.15;;;1.10;;
72493;SDS011;60520;49.182;-0.348;2022-07-01T11:39:33;4.32;;;1.08;;
72493;SDS011;60520;49.182;-0.348;2022-07-01T11:42:02;3.05;;;0.85;;
72493;SDS011;60520;49.182;-0.348;2022-07-01T11:44:34;2.75;;;0.82;;
72493;SDS011;60520;49.182;-0.348;2022-07-01T11:47:02;4.18;;;0.82;;
72493;SDS011;60520;49.182;-0.348;2022-07-01T11:49:30;6.35;;;0.90;;
72493;SDS011;60520;49.182;-0.348;2022-07-01T11:51:57;2.22;;;0.80;;
72493;SDS011;60520;49.182;-0.348;2022-07-01T11:54:25;2.60;;;0.90;;
72493;SDS011;60520;49.182;-0.348;2022-07-01T11:56:52;2.78;;;0.80;;
72493;SDS011;60520;49.182;-0.348;2022-07-01T11:59:20;3.63;;;0.80;;
72493;SDS011;60520;49.182;-0.348;2022-07-01T12:01:52;2.33;;;0.60;;
72493;SDS011;60520;49.182;-0.348;2022-07-01T12:04:20;3.70;;;0.70;;
72493;SDS011;60520;49.182;-0.348;2022-07-01T12:06:47;8.35;;;0.90;;
72493;SDS011;60520;49.182;-0.348;2022-07-01T12:09:16;5.18;;;0.75;;
72493;SDS011;60520;49.182;-0.348;2022-07-01T12:11:44;1.65;;;0.63;;
72493;SDS011;60520;49.182;-0.348;2022-07-01T12:14:12;5.00;;;0.63;;
72493;SDS011;60520;49.182;-0.348;2022-07-01T12:16:45;2.83;;;0.80;;
72493;SDS011;60520;49.182;-0.348;2022-07-01T12:19:14;3.92;;;1.00;;
72493;SDS011;60520;49.182;-0.348;2022-07-01T12:21:47;4.28;;;0.80;;
72493;SDS011;60520;49.182;-0.348;2022-07-01T12:24:15;3.38;;;0.82;;
72493;SDS011;60520;49.182;-0.348;2022-07-01T12:26:47;4.78;;;1.10;;
72493;SDS011;60520;49.182;-0.348;2022-07-01T12:29:14;4.10;;;0.80;;
72493;SDS011;60520;49.182;-0.348;2022-07-01T12:31:41;4.63;;;0.90;;
72493;SDS011;60520;49.182;-0.348;2022-07-01T12:34:08;5.88;;;1.13;;
72493;SDS011;60520;49.182;-0.348;2022-07-01T12:36:37;15.45;;;1.50;;
72493;SDS011;60520;49.182;-0.348;2022-07-01T12:39:05;12.07;;;1.73;;
72493;SDS011;60520;49.182;-0.348;2022-07-01T12:41:32;8.82;;;1.20;;
72493;SDS011;60520;49.182;-0.348;2022-07-01T12:44:00;3.97;;;1.10;;
72493;SDS011;60520;49.182;-0.348;2022-07-01T12:46:27;6.93;;;0.88;;
72493;SDS011;60520;49.182;-0.348;2022-07-01T12:48:54;4.07;;;0.93;;
72493;SDS011;60520;49.182;-0.348;2022-07-01T12:51:27;9.13;;;1.35;;
72493;SDS011;60520;49.182;-0.348;2022-07-01T12:53:56;15.77;;;1.60;;
72493;SDS011;60520;49.182;-0.348;2022-07-01T12:56:24;10.25;;;1.50;;
72493;SDS011;60520;49.182;-0.348;2022-07-01T12:58:51;13.05;;;1.95;;
72493;SDS011;60520;49.182;-0.348;2022-07-01T13:01:18;4.43;;;1.35;;
72493;SDS011;60520;49.182;-0.348;2022-07-01T13:03:46;27.98;;;2.28;;
72493;SDS011;60520;49.182;-0.348;2022-07-01T13:06:13;15.07;;;1.50;;
72493;SDS011;60520;49.182;-0.348;2022-07-01T13:08:40;5.10;;;1.05;;
72493;SDS011;60520;49.182;-0.348;2022-07-01T13:11:09;11.60;;;1.27;;
72493;SDS011;60520;49.182;-0.348;2022-07-01T13:13:36;4.50;;;0.85;;
72493;SDS011;60520;49.182;-0.348;2022-07-01T13:16:03;8.60;;;1.00;;
72493;SDS011;60520;49.182;-0.348;2022-07-01T13:18:31;2.85;;;0.80;;
72493;SDS011;60520;49.182;-0.348;2022-07-01T13:20:59;6.75;;;1.17;;
72493;SDS011;60520;49.182;-0.348;2022-07-01T13:23:26;6.68;;;0.80;;
72493;SDS011;60520;49.182;-0.348;2022-07-01T13:25:53;5.68;;;1.10;;
72493;SDS011;60520;49.182;-0.348;2022-07-01T13:30:33;5.72;;;0.90;;
72493;SDS011;60520;49.182;-0.348;2022-07-01T13:33:03;3.78;;;0.90;;
72493;SDS011;60520;49.182;-0.348;2022-07-01T13:35:30;4.60;;;1.00;;
72493;SDS011;60520;49.182;-0.348;2022-07-01T13:37:57;2.30;;;0.80;;
72493;SDS011;60520;49.182;-0.348;2022-07-01T13:40:24;2.25;;;0.80;;
72493;SDS011;60520;49.182;-0.348;2022-07-01T13:42:51;4.90;;;0.70;;
72493;SDS011;60520;49.182;-0.348;2022-07-01T13:45:18;8.10;;;1.05;;
72493;SDS011;60520;49.182;-0.348;2022-07-01T13:47:47;7.25;;;1.45;;
72493;SDS011;60520;49.182;-0.348;2022-07-01T13:50:14;1.55;;;0.70;;
72493;SDS011;60520;49.182;-0.348;2022-07-01T13:52:44;6.35;;;0.98;;
72493;SDS011;60520;49.182;-0.348;2022-07-01T13:55:11;5.65;;;0.80;;
72493;SDS011;60520;49.182;-0.348;2022-07-01T13:57:38;9.90;;;1.05;;
72493;SDS011;60520;49.182;-0.348;2022-07-01T14:00:05;3.85;;;0.80;;
72493;SDS011;60520;49.182;-0.348;2022-07-01T14:02:33;6.45;;;1.00;;
72493;SDS011;60520;49.182;-0.348;2022-07-01T14:05:01;21.02;;;1.63;;
72493;SDS011;60520;49.182;-0.348;2022-07-01T14:07:29;8.85;;;1.10;;
72493;SDS011;60520;49.182;-0.348;2022-07-01T14:09:56;10.88;;;1.30;;
72493;SDS011;60520;49.182;-0.348;2022-07-01T14:12:24;7.82;;;1.23;;
72493;SDS011;60520;49.182;-0.348;2022-07-01T14:14:51;9.20;;;1.08;;
72493;SDS011;60520;49.182;-0.348;2022-07-01T14:17:19;9.60;;;1.30;;
72493;SDS011;60520;49.182;-0.348;2022-07-01T14:19:46;3.58;;;0.98;;
72493;SDS011;60520;49.182;-0.348;2022-07-01T14:22:14;2.40;;;0.90;;
72493;SDS011;60520;49.182;-0.348;2022-07-01T14:24:41;6.30;;;1.42;;
72493;SDS011;60520;49.182;-0.348;2022-07-01T14:27:09;6.53;;;1.20;;
72493;SDS011;60520;49.182;-0.348;2022-07-01T14:29:36;9.50;;;1.30;;
72493;SDS011;60520;49.182;-0.348;2022-07-01T14:32:04;5.15;;;1.30;;
72493;SDS011;60520;49.182;-0.348;2022-07-01T14:34:32;8.85;;;1.40;;
72493;SDS011;60520;49.182;-0.348;2022-07-01T14:36:59;9.80;;;2.63;;
72493;SDS011;60520;49.182;-0.348;2022-07-01T14:39:27;8.35;;;2.45;;
72493;SDS011;60520;49.182;-0.348;2022-07-01T14:41:55;7.15;;;2.72;;
72493;SDS011;60520;49.182;-0.348;2022-07-01T14:44:22;9.30;;;3.17;;
72493;SDS011;60520;49.182;-0.348;2022-07-01T14:46:49;10.50;;;2.83;;
72493;SDS011;60520;49.182;-0.348;2022-07-01T14:49:17;12.68;;;3.45;;